Time;durP1;ratioP1;P1;durP2;ratioP2;P2;SDS_P1;SDS_P2;PMS_P1;PMS_P2;Temp;Humidity;BMP_temperature;BMP_pressure;BME280_temperature;BME280_humidity;BME280_pressure;Samples;Min_cycle;Max_cycle;Signal;HPM_P1;HPM_P2
2022/06/26 00:01:45;;;;;;;;;;;;;;;16.55;91.55;99511.11;1661061;86;20177;-66
2022/06/26 00:04:11;;;;;;;;;;;;;;;16.48;92.04;99513.69;1660781;86;20153;-66
2022/06/26 00:06:39;;;;;;;;;;;;;;;16.41;92.48;99514.30;1661039;86;21864;-66
2022/06/26 00:09:06;;;;;;;;;;;;;;;16.35;92.90;99510.77;1660747;86;20210;-66
2022/06/26 00:11:33;;;;;;;;;;;;;;;16.27;93.37;99516.69;1660866;86;20197;-66
2022/06/26 00:14:00;;;;;;;;;;;;;;;16.22;93.80;99525.25;1660890;85;20131;-66
2022/06/26 00:16:26;;;;;;;;;;;;;;;16.17;94.00;99528.31;1660824;85;20161;-66
2022/06/26 00:18:52;;;;;;;;;;;;;;;16.12;94.28;99536.30;1660937;86;21147;-66
2022/06/26 00:21:19;;;;;;;;;;;;;;;16.08;94.49;99529.04;1660933;86;20172;-66
2022/06/26 00:23:45;;;;;;;;;;;;;;;16.05;94.75;99534.70;1660801;86;20487;-66
2022/06/26 00:26:11;;;;;;;;;;;;;;;16.02;94.68;99529.88;1661056;86;20129;-66
2022/06/26 00:28:38;;;;;;;;;;;;;;;15.98;94.85;99531.73;1660809;86;20166;-66
2022/06/26 00:31:04;;;;;;;;;;;;;;;15.92;95.06;99528.98;1660817;86;21136;-66
2022/06/26 00:33:31;;;;;;;;;;;;;;;15.88;95.11;99525.31;1660826;86;20129;-67
2022/06/26 00:35:57;;;;;;;;;;;;;;;15.83;95.21;99527.74;1660914;86;20110;-66
2022/06/26 00:38:24;;;;;;;;;;;;;;;15.79;95.51;99528.80;1660887;86;20201;-66
2022/06/26 00:40:50;;;;;;;;;;;;;;;15.76;95.68;99529.50;1660845;86;20110;-66
2022/06/26 00:43:16;;;;;;;;;;;;;;;15.71;95.80;99537.46;1660889;86;21143;-66
2022/06/26 00:45:44;;;;;;;;;;;;;;;15.67;96.10;99537.94;1660226;85;20142;-66
2022/06/26 00:48:10;;;;;;;;;;;;;;;15.62;96.37;99538.75;1690035;84;20151;-67
2022/06/26 00:50:37;;;;;;;;;;;;;;;15.57;96.49;99535.68;1689695;85;20088;-66
2022/06/26 00:53:04;;;;;;;;;;;;;;;15.54;96.73;99539.11;1689997;85;20139;-66
2022/06/26 00:55:33;;;;;;;;;;;;;;;15.51;96.87;99542.00;1689606;85;21155;-66
2022/06/26 00:58:07;;;;;;;;;;;;;;;15.48;97.01;99540.51;1660818;85;20080;-66
2022/06/26 01:00:33;;;;;;;;;;;;;;;15.45;97.47;99542.59;1689601;85;20096;-66
2022/06/26 01:03:00;;;;;;;;;;;;;;;15.43;97.97;99543.51;1689614;85;20167;-66
2022/06/26 01:05:26;;;;;;;;;;;;;;;15.43;98.32;99543.51;1689647;85;20459;-66
2022/06/26 01:07:53;;;;;;;;;;;;;;;15.39;98.39;99541.20;1660576;85;21948;-66
2022/06/26 01:10:19;;;;;;;;;;;;;;;15.36;98.71;99547.44;1689539;85;20112;-66
2022/06/26 01:12:46;;;;;;;;;;;;;;;15.33;99.15;99539.26;1689696;85;20104;-66
2022/06/26 01:15:12;;;;;;;;;;;;;;;15.35;99.86;99543.86;1660297;85;20184;-67
2022/06/26 01:17:41;;;;;;;;;;;;;;;15.37;100.00;99536.02;1689738;85;20438;-66
2022/06/26 01:20:10;;;;;;;;;;;;;;;15.39;99.98;99537.06;1689604;85;21802;-66
2022/06/26 01:22:36;;;;;;;;;;;;;;;15.42;99.95;99548.81;1689875;85;20430;-66
2022/06/26 01:25:05;;;;;;;;;;;;;;;15.40;99.72;99546.39;1689540;85;20439;-67
2022/06/26 01:27:35;;;;;;;;;;;;;;;15.38;99.77;99550.09;1689582;85;20105;-66
2022/06/26 01:30:03;;;;;;;;;;;;;;;15.35;99.80;99549.39;1685452;85;20084;-66
2022/06/26 01:32:31;;;;;;;;;;;;;;;15.33;99.81;99564.72;1689591;85;21147;-66
2022/06/26 01:34:57;;;;;;;;;;;;;;;15.28;100.00;99561.62;1689811;85;20125;-66
2022/06/26 01:37:25;;;;;;;;;;;;;;;15.26;100.00;99559.77;1660237;85;33592;-66
2022/06/26 01:39:52;;;;;;;;;;;;;;;15.27;100.00;99559.20;1689577;85;20521;-66
2022/06/26 01:42:18;;;;;;;;;;;;;;;15.26;100.00;99557.01;1689528;85;20112;-67
2022/06/26 01:44:47;;;;;;;;;;;;;;;15.27;100.00;99557.81;1689569;85;21180;-66
2022/06/26 01:47:13;;;;;;;;;;;;;;;15.25;100.00;99562.88;1679272;84;20120;-66
2022/06/26 01:49:40;;;;;;;;;;;;;;;15.23;100.00;99563.23;1675564;85;20105;-66
2022/06/26 01:52:07;;;;;;;;;;;;;;;15.20;100.00;99565.30;1675402;85;20117;-66
2022/06/26 01:54:34;;;;;;;;;;;;;;;15.15;100.00;99569.10;1675420;85;20479;-66
2022/06/26 01:57:00;;;;;;;;;;;;;;;15.09;100.00;99574.63;1675275;85;21153;-67
2022/06/26 01:59:27;;;;;;;;;;;;;;;15.04;100.00;99574.05;1675536;85;20136;-66
2022/06/26 02:01:54;;;;;;;;;;;;;;;14.99;100.00;99571.55;1675409;85;20140;-66
2022/06/26 02:04:22;;;;;;;;;;;;;;;14.96;100.00;99579.14;1675474;85;20096;-66
2022/06/26 02:06:49;;;;;;;;;;;;;;;14.94;100.00;99577.30;1675417;85;20120;-66
2022/06/26 02:14:51;;;;;;;;;;;;;;;14.96;100.00;99581.91;1655895;84;20121;-67
2022/06/26 02:17:17;;;;;;;;;;;;;;;15.00;100.00;99583.64;1675383;85;20084;-66
2022/06/26 02:19:44;;;;;;;;;;;;;;;15.09;100.00;99584.88;1675408;85;20491;-66
2022/06/26 02:22:11;;;;;;;;;;;;;;;15.18;100.00;99585.00;1675464;85;21225;-66
2022/06/26 02:24:41;;;;;;;;;;;;;;;15.28;100.00;99595.38;1675217;85;20171;-66
2022/06/26 02:27:08;;;;;;;;;;;;;;;15.38;100.00;99589.39;1675407;85;20084;-66
2022/06/26 02:29:34;;;;;;;;;;;;;;;15.48;100.00;99586.16;1675255;85;20105;-66
2022/06/26 02:32:02;;;;;;;;;;;;;;;15.58;100.00;99589.86;1675389;85;20432;-66
2022/06/26 02:34:29;;;;;;;;;;;;;;;15.65;100.00;99592.02;1675509;85;20586;-66
2022/06/26 02:36:55;;;;;;;;;;;;;;;15.72;100.00;99597.77;1675223;85;20111;-66
2022/06/26 02:39:22;;;;;;;;;;;;;;;15.76;100.00;99587.04;1674246;85;20097;-67
2022/06/26 02:41:50;;;;;;;;;;;;;;;15.81;100.00;99585.41;1674623;85;20085;-66
2022/06/26 02:44:17;;;;;;;;;;;;;;;15.87;100.00;99594.86;1673951;85;20093;-71
2022/06/26 02:46:43;;;;;;;;;;;;;;;15.95;100.00;99592.53;1681344;85;21211;-66
2022/06/26 02:49:11;;;;;;;;;;;;;;;16.03;100.00;99603.47;1647762;87;20103;-76
2022/06/26 02:51:37;;;;;;;;;;;;;;;16.13;100.00;99599.41;1698764;84;20120;-67
2022/06/26 02:54:04;;;;;;;;;;;;;;;16.25;100.00;99596.56;1697269;84;20159;-71
2022/06/26 02:56:31;;;;;;;;;;;;;;;16.37;100.00;99595.13;1699036;84;20119;-71
2022/06/26 02:58:59;;;;;;;;;;;;;;;16.51;100.00;99602.45;1698909;84;21565;-68
2022/06/26 03:01:26;;;;;;;;;;;;;;;16.65;100.00;99608.20;1699098;84;20084;-71
2022/06/26 03:03:54;;;;;;;;;;;;;;;16.78;100.00;99604.17;1690557;85;20076;-69
2022/06/26 03:06:21;;;;;;;;;;;;;;;16.92;100.00;99605.93;1691323;85;20441;-70
2022/06/26 03:08:47;;;;;;;;;;;;;;;17.02;99.61;99599.86;1691206;85;20167;-72
2022/06/26 03:11:16;;;;;;;;;;;;;;;17.13;98.92;99606.48;1691275;85;21175;-68
2022/06/26 03:13:49;;;;;;;;;;;;;;;17.23;98.14;99602.95;1693112;85;20124;-71
2022/06/26 03:16:20;;;;;;;;;;;;;;;17.32;97.61;99607.16;1662329;85;20120;-71
2022/06/26 03:18:54;;;;;;;;;;;;;;;17.42;96.78;99612.70;1642066;85;20084;-70
2022/06/26 03:21:27;;;;;;;;;;;;;;;17.50;95.85;99610.33;1691223;85;20155;-72
2022/06/26 03:24:06;;;;;;;;;;;;;;;17.59;95.49;99611.52;1690731;84;21160;-67
2022/06/26 03:26:39;;;;;;;;;;;;;;;17.67;94.75;99606.39;1691085;85;20120;-66
2022/06/26 03:29:08;;;;;;;;;;;;;;;17.76;93.98;99600.86;1690918;85;20120;-67
2022/06/26 03:31:39;;;;;;;;;;;;;;;17.86;93.29;99606.44;1691229;85;20096;-66
2022/06/26 03:34:10;;;;;;;;;;;;;;;17.94;92.69;99606.78;1691241;85;20096;-66
2022/06/26 03:36:44;;;;;;;;;;;;;;;18.01;91.99;99606.94;1686365;85;20100;-66
2022/06/26 03:39:15;;;;;;;;;;;;;;;18.10;91.27;99600.59;1690563;85;20076;-66
2022/06/26 03:41:58;;;;;;;;;;;;;;;18.17;90.50;99600.52;1663839;85;20455;-66
2022/06/26 03:44:17;;;;;;;;;;;;;;;18.22;90.28;99609.95;1689307;85;20159;-66
2022/06/26 03:46:47;;;;;;;;;;;;;;;18.29;89.77;99596.22;1656044;86;20496;-66
2022/06/26 03:49:16;;;;;;;;;;;;;;;18.36;89.12;99599.94;1659511;86;21219;-66
2022/06/26 03:51:49;;;;;;;;;;;;;;;18.43;88.27;99595.11;1638165;86;20168;-66
2022/06/26 03:54:19;;;;;;;;;;;;;;;18.51;87.25;99594.05;1638313;86;20150;-66
2022/06/26 03:56:57;;;;;;;;;;;;;;;18.58;86.06;99591.41;1661578;85;20181;-66
2022/06/26 03:59:29;;;;;;;;;;;;;;;18.68;85.37;99600.58;1661352;85;20125;-67
2022/06/26 04:01:59;;;;;;;;;;;;;;;18.77;84.43;99596.97;1659230;85;20711;-68
2022/06/26 04:04:26;;;;;;;;;;;;;;;18.86;83.89;99593.95;1658011;86;20236;-67
2022/06/26 04:06:58;;;;;;;;;;;;;;;18.94;83.34;99597.08;1660464;85;20122;-72
2022/06/26 04:09:33;;;;;;;;;;;;;;;19.03;83.39;99592.08;1659028;85;20407;-72
2022/06/26 04:12:02;;;;;;;;;;;;;;;19.12;83.01;99599.55;1660187;86;20133;-73
2022/06/26 04:14:32;;;;;;;;;;;;;;;19.22;82.42;99598.72;1658066;86;21177;-66
2022/06/26 04:17:07;;;;;;;;;;;;;;;19.32;81.77;99606.44;1635532;86;20169;-72
2022/06/26 04:19:34;;;;;;;;;;;;;;;19.41;81.41;99606.41;1637224;86;20508;-72
2022/06/26 04:22:09;;;;;;;;;;;;;;;19.50;80.18;99604.75;1660701;85;20143;-73
2022/06/26 04:24:36;;;;;;;;;;;;;;;19.58;80.30;99601.52;1658416;86;20161;-71
2022/06/26 04:27:04;;;;;;;;;;;;;;;19.67;80.37;99604.22;1638397;86;21135;-73
2022/06/26 04:29:34;;;;;;;;;;;;;;;19.76;80.33;99601.97;1659274;86;20142;-73
2022/06/26 04:32:08;;;;;;;;;;;;;;;19.87;79.50;99609.68;1638566;86;20150;-73
2022/06/26 04:34:46;;;;;;;;;;;;;;;19.96;78.88;99608.22;1660322;85;20157;-74
2022/06/26 04:37:26;;;;;;;;;;;;;;;20.06;78.42;99607.56;1661171;85;20118;-71
2022/06/26 04:39:51;;;;;;;;;;;;;;;20.16;78.03;99602.52;1659321;86;21146;-71
2022/06/26 04:42:24;;;;;;;;;;;;;;;20.21;77.70;99598.80;1659126;86;20118;-71
2022/06/26 04:44:52;;;;;;;;;;;;;;;20.30;77.21;99596.50;1658423;85;20151;-69
2022/06/26 04:47:31;;;;;;;;;;;;;;;20.40;77.08;99601.44;1656218;85;20469;-70
2022/06/26 04:49:56;;;;;;;;;;;;;;;20.50;77.00;99597.76;1645412;87;20150;-72
2022/06/26 04:52:23;;;;;;;;;;;;;;;20.59;76.32;99599.06;1617177;89;21537;-72
2022/06/26 04:54:51;;;;;;;;;;;;;;;20.69;75.67;99593.39;1630720;88;20105;-71
2022/06/26 04:57:17;;;;;;;;;;;;;;;20.80;75.67;99600.48;1630923;88;20441;-70
2022/06/26 04:59:46;;;;;;;;;;;;;;;20.93;75.74;99607.37;1644036;87;20107;-70
2022/06/26 05:02:12;;;;;;;;;;;;;;;21.05;75.91;99608.48;1630958;88;20161;-71
2022/06/26 05:04:43;;;;;;;;;;;;;;;21.16;75.15;99608.58;1614549;87;21165;-72
2022/06/26 05:07:14;;;;;;;;;;;;;;;21.27;76.13;99606.72;1628701;88;20286;-71
2022/06/26 05:09:41;;;;;;;;;;;;;;;21.39;75.10;99605.00;1645016;87;20454;-71
2022/06/26 05:12:07;;;;;;;;;;;;;;;21.51;74.50;99610.88;1630921;88;20114;-71
2022/06/26 05:14:35;;;;;;;;;;;;;;;21.61;74.26;99608.75;1650996;86;20103;-73
2022/06/26 05:17:19;;;;;;;;;;;;;;;21.73;73.10;99608.44;1631786;87;21182;-70
2022/06/26 05:19:46;;;;;;;;;;;;;;;21.87;73.28;99614.13;1636254;86;20138;-68
2022/06/26 05:22:13;;;;;;;;;;;;;;;21.97;72.28;99610.56;1608153;88;20125;-75
2022/06/26 05:24:42;;;;;;;;;;;;;;;22.08;72.73;99612.05;1601553;88;20081;-76
2022/06/26 05:27:09;;;;;;;;;;;;;;;22.21;72.76;99609.72;1631403;86;20180;-74
2022/06/26 05:29:35;;;;;;;;;;;;;;;22.35;72.68;99604.99;1631178;88;21934;-76
2022/06/26 05:32:19;;;;;;;;;;;;;;;22.47;72.15;99611.43;1629659;88;20498;-76
2022/06/26 05:34:38;;;;;;;;;;;;;;;22.57;71.32;99615.63;1629808;87;20132;-73
2022/06/26 05:37:05;;;;;;;;;;;;;;;22.68;70.59;99617.07;1630594;87;20140;-72
2022/06/26 05:39:36;;;;;;;;;;;;;;;22.78;70.03;99621.89;1631737;88;20176;-77
2022/06/26 05:42:05;;;;;;;;;;;;;;;22.88;68.93;99618.95;1630366;87;22050;-75
2022/06/26 05:44:32;;;;;;;;;;;;;;;22.93;66.42;99624.97;1631856;88;20127;-74
2022/06/26 05:47:09;;;;;;;;;;;;;;;22.96;66.88;99622.77;1632245;88;20444;-74
2022/06/26 05:49:41;;;;;;;;;;;;;;;23.05;67.67;99627.39;1634771;87;20188;-75
2022/06/26 05:52:19;;;;;;;;;;;;;;;23.15;67.06;99624.97;1634674;87;20149;-69
2022/06/26 05:55:08;;;;;;;;;;;;;;;23.22;66.94;99624.38;1681875;85;20469;-70
2022/06/26 05:57:50;;;;;;;;;;;;;;;23.36;67.03;99631.99;1619327;86;20432;-72
2022/06/26 06:00:24;;;;;;;;;;;;;;;23.50;66.46;99632.00;1677661;85;20137;-75
2022/06/26 06:02:55;;;;;;;;;;;;;;;23.60;66.06;99629.02;1658776;85;20096;-74
2022/06/26 06:05:39;;;;;;;;;;;;;;;23.71;65.73;99631.19;1676417;85;20168;-74
2022/06/26 06:07:56;;;;;;;;;;;;;;;23.84;66.40;99630.17;1675057;85;21212;-73
2022/06/26 06:10:36;;;;;;;;;;;;;;;23.97;64.68;99634.95;1659302;85;20088;-72
2022/06/26 06:13:01;;;;;;;;;;;;;;;24.08;64.21;99638.33;1678295;83;20117;-71
2022/06/26 06:15:34;;;;;;;;;;;;;;;24.17;63.20;99638.71;1649563;85;20179;-71
2022/06/26 06:18:01;;;;;;;;;;;;;;;24.26;62.25;99632.88;1679517;85;20089;-75
2022/06/26 06:20:29;;;;;;;;;;;;;;;24.33;62.17;99630.05;1681563;85;20097;-72
2022/06/26 06:23:10;;;;;;;;;;;;;;;24.42;60.93;99633.02;1679150;85;20084;-75
2022/06/26 06:25:40;;;;;;;;;;;;;;;24.49;61.36;99632.39;1678617;85;20096;-76
2022/06/26 06:28:10;;;;;;;;;;;;;;;24.62;61.42;99628.52;1678871;85;20148;-75
2022/06/26 06:30:38;;;;;;;;;;;;;;;24.73;60.80;99622.25;1679141;85;20117;-73
2022/06/26 06:33:06;;;;;;;;;;;;;;;24.83;61.38;99629.02;1683027;85;21273;-76
2022/06/26 06:35:37;;;;;;;;;;;;;;;24.92;60.21;99625.92;1679312;83;20108;-72
2022/06/26 06:38:04;;;;;;;;;;;;;;;25.05;59.58;99626.28;1679174;85;20113;-74
2022/06/26 06:40:34;;;;;;;;;;;;;;;25.19;59.90;99632.41;1664989;85;20176;-75
2022/06/26 06:43:01;;;;;;;;;;;;;;;25.29;57.20;99628.72;1672230;85;20928;-73
2022/06/26 06:45:34;;;;;;;;;;;;;;;25.33;56.88;99632.30;1678503;85;21227;-71
2022/06/26 06:48:06;;;;;;;;;;;;;;;25.33;55.47;99634.50;1661522;85;20465;-73
2022/06/26 06:50:48;;;;;;;;;;;;;;;25.39;57.57;99635.47;1623715;87;20092;-74
2022/06/26 06:53:20;;;;;;;;;;;;;;;25.47;56.24;99639.19;1621152;86;20133;-72
2022/06/26 06:55:50;;;;;;;;;;;;;;;25.55;55.87;99642.13;1638305;86;20479;-73
2022/06/26 06:58:21;;;;;;;;;;;;;;;25.60;54.94;99640.28;1622085;86;20557;-70
2022/06/26 07:00:54;;;;;;;;;;;;;;;25.64;55.09;99642.48;1655671;86;20471;-70
2022/06/26 07:03:24;;;;;;;;;;;;;;;25.74;53.80;99637.18;1632530;86;20445;-71
2022/06/26 07:05:53;;;;;;;;;;;;;;;25.76;53.45;99642.58;1656404;86;20152;-70
2022/06/26 07:08:23;;;;;;;;;;;;;;;25.81;52.52;99639.92;1656509;85;20122;-70
2022/06/26 07:10:56;;;;;;;;;;;;;;;25.88;53.78;99637.84;1656205;85;21139;-72
2022/06/26 07:13:26;;;;;;;;;;;;;;;25.96;52.05;99648.41;1632206;86;20133;-72
2022/06/26 07:15:52;;;;;;;;;;;;;;;25.98;51.05;99651.61;1658620;85;20150;-72
2022/06/26 07:18:24;;;;;;;;;;;;;;;26.01;51.47;99647.93;1656368;85;20511;-71
2022/06/26 07:20:52;;;;;;;;;;;;;;;26.02;51.20;99639.69;1609042;88;20145;-74
2022/06/26 07:23:24;;;;;;;;;;;;;;;26.07;51.98;99641.24;1628714;87;21844;-69
2022/06/26 07:25:52;;;;;;;;;;;;;;;26.17;50.88;99643.95;1648693;86;20120;-69
2022/06/26 07:28:24;;;;;;;;;;;;;;;26.28;50.56;99646.03;1618342;87;20482;-69
2022/06/26 07:30:57;;;;;;;;;;;;;;;26.38;49.83;99645.75;1661736;85;20110;-70
2022/06/26 07:36:13;;;;;;;;;;;;;;;26.43;48.97;99641.06;1660225;85;21895;-70
2022/06/26 07:38:44;;;;;;;;;;;;;;;26.41;48.15;99642.70;1660079;85;20160;-73
2022/06/26 07:41:14;;;;;;;;;;;;;;;26.44;48.45;99643.27;1661409;86;20197;-73
2022/06/26 07:43:48;;;;;;;;;;;;;;;26.48;47.79;99636.98;1661060;86;20149;-75
2022/06/26 07:46:15;;;;;;;;;;;;;;;26.53;48.04;99637.93;1661237;85;20133;-75
2022/06/26 07:48:50;;;;;;;;;;;;;;;26.64;48.08;99632.94;1659257;85;21168;-76
2022/06/26 07:51:20;;;;;;;;;;;;;;;26.82;48.44;99632.08;1686845;85;20084;-73
2022/06/26 07:53:50;;;;;;;;;;;;;;;27.10;47.46;99633.73;1689741;85;20096;-75
2022/06/26 07:56:20;;;;;;;;;;;;;;;27.35;45.41;99624.06;1688237;85;20112;-74
2022/06/26 07:58:47;;;;;;;;;;;;;;;27.43;45.24;99629.16;1689437;84;20084;-74
2022/06/26 08:01:15;;;;;;;;;;;;;;;27.51;45.82;99636.27;1683127;85;21120;-74
2022/06/26 08:03:44;;;;;;;;;;;;;;;27.47;44.73;99631.92;1688453;85;20408;-74
2022/06/26 08:06:16;;;;;;;;;;;;;;;27.32;43.52;99636.98;1689385;85;20274;-75
2022/06/26 08:08:50;;;;;;;;;;;;;;;27.28;44.92;99634.84;1689469;84;20120;-73
2022/06/26 08:11:18;;;;;;;;;;;;;;;27.41;44.81;99625.97;1689498;84;20092;-74
2022/06/26 08:13:51;;;;;;;;;;;;;;;27.35;42.65;99638.95;1689284;85;21193;-76
2022/06/26 08:16:24;;;;;;;;;;;;;;;27.20;44.10;99641.80;1686562;83;20076;-76
2022/06/26 08:18:50;;;;;;;;;;;;;;;27.04;44.31;99646.70;1688941;83;20092;-75
2022/06/26 08:24:06;;;;;;;;;;;;;;;26.86;44.50;99646.91;1689479;85;20120;-73
2022/06/26 08:26:37;;;;;;;;;;;;;;;27.23;43.95;99647.39;1688599;85;21539;-74
2022/06/26 08:29:08;;;;;;;;;;;;;;;27.70;43.85;99641.03;1684430;84;20128;-72
2022/06/26 08:31:36;;;;;;;;;;;;;;;28.17;43.29;99645.37;1683910;85;20510;-72
2022/06/26 08:34:08;;;;;;;;;;;;;;;28.67;42.68;99637.30;1689242;84;20100;-75
2022/06/26 08:36:38;;;;;;;;;;;;;;;29.05;41.21;99639.70;1682397;85;20105;-75
2022/06/26 08:39:09;;;;;;;;;;;;;;;29.22;40.72;99638.49;1659838;85;20100;-72
2022/06/26 08:41:39;;;;;;;;;;;;;;;29.09;39.43;99642.63;1689469;85;20434;-72
2022/06/26 08:44:06;;;;;;;;;;;;;;;28.73;39.52;99637.59;1689326;85;20100;-73
2022/06/26 08:46:33;;;;;;;;;;;;;;;28.47;40.55;99646.40;1689764;85;20221;-73
2022/06/26 08:49:00;;;;;;;;;;;;;;;28.35;41.10;99645.64;1667894;85;20181;-73
2022/06/26 08:51:26;;;;;;;;;;;;;;;28.16;40.41;99650.83;1648547;87;21278;-75
2022/06/26 08:53:53;;;;;;;;;;;;;;;27.85;40.95;99652.22;1648426;86;20476;-75
2022/06/26 08:56:20;;;;;;;;;;;;;;;27.60;41.76;99649.86;1648700;87;20130;-75
2022/06/26 08:58:46;;;;;;;;;;;;;;;27.36;41.60;99647.59;1648156;87;20480;-74
2022/06/26 09:01:14;;;;;;;;;;;;;;;27.23;42.92;99645.17;1648017;87;20208;-72
2022/06/26 09:03:40;;;;;;;;;;;;;;;27.21;43.42;99646.22;1648385;87;21158;-73
2022/06/26 09:06:07;;;;;;;;;;;;;;;27.34;43.28;99633.13;1647389;87;20488;-75
2022/06/26 09:08:43;;;;;;;;;;;;;;;27.67;43.29;99621.53;1648623;86;20483;-74
2022/06/26 09:11:11;;;;;;;;;;;;;;;28.34;42.03;99621.46;1648208;87;20114;-72
2022/06/26 09:13:40;;;;;;;;;;;;;;;29.09;41.08;99629.91;1648485;87;20473;-72
2022/06/26 09:16:07;;;;;;;;;;;;;;;29.73;38.49;99626.13;1646966;87;21558;-72
2022/06/26 09:18:35;;;;;;;;;;;;;;;29.96;36.30;99624.50;1647440;86;20171;-72
2022/06/26 09:21:04;;;;;;;;;;;;;;;29.76;36.98;99628.86;1647516;87;20150;-71
2022/06/26 09:23:35;;;;;;;;;;;;;;;29.72;37.41;99627.36;1647681;87;20163;-72
2022/06/26 09:26:01;;;;;;;;;;;;;;;29.77;37.09;99635.31;1647358;87;20118;-71
2022/06/26 09:28:28;;;;;;;;;;;;;;;29.61;37.12;99625.42;1647501;87;21161;-72
2022/06/26 09:30:57;;;;;;;;;;;;;;;29.28;38.37;99628.88;1647402;87;20146;-71
2022/06/26 09:33:26;;;;;;;;;;;;;;;28.94;39.60;99634.30;1647234;87;20501;-71
2022/06/26 09:35:52;;;;;;;;;;;;;;;28.75;39.26;99633.09;1647294;87;20150;-75
2022/06/26 09:38:21;;;;;;;;;;;;;;;28.58;40.19;99641.33;1647482;86;20175;-74
2022/06/26 09:40:50;;;;;;;;;;;;;;;28.54;41.14;99634.95;1637193;87;21275;-70
2022/06/26 09:43:34;;;;;;;;;;;;;;;28.65;40.54;99628.47;1648912;87;20118;-71
2022/06/26 09:46:04;;;;;;;;;;;;;;;28.66;41.13;99627.23;1648603;87;20158;-72
2022/06/26 09:48:30;;;;;;;;;;;;;;;28.50;40.51;99627.17;1647016;85;20146;-71
2022/06/26 09:50:56;;;;;;;;;;;;;;;28.21;41.04;99632.02;1647488;85;20519;-71
2022/06/26 09:53:24;;;;;;;;;;;;;;;27.95;41.46;99625.84;1637416;86;21142;-71
2022/06/26 09:55:51;;;;;;;;;;;;;;;27.72;42.59;99625.89;1659074;86;20167;-79
2022/06/26 09:58:18;;;;;;;;;;;;;;;27.62;42.13;99622.02;1658843;86;20164;-79
2022/06/26 10:06:25;;;;;;;;;;;;;;;27.81;43.65;99623.27;1659011;85;20221;-73
2022/06/26 10:08:43;;;;;;;;;;;;;;;28.83;39.98;99614.78;1658693;86;20157;-72
2022/06/26 10:11:10;;;;;;;;;;;;;;;29.21;40.17;99625.59;1658693;86;20181;-71
2022/06/26 10:13:38;;;;;;;;;;;;;;;29.44;39.92;99626.87;1658677;86;20122;-71
2022/06/26 10:16:28;;;;;;;;;;;;;;;29.60;38.25;99629.49;1658657;86;20229;-71
2022/06/26 10:19:23;;;;;;;;;;;;;;;29.69;40.04;99628.25;1658718;86;20546;-73
2022/06/26 10:21:50;;;;;;;;;;;;;;;29.87;39.07;99632.83;1663655;86;20107;-71
2022/06/26 10:24:17;;;;;;;;;;;;;;;29.75;38.03;99636.38;1663865;86;20160;-72
2022/06/26 10:26:54;;;;;;;;;;;;;;;29.36;39.26;99637.36;1662086;86;20202;-71
2022/06/26 10:29:20;;;;;;;;;;;;;;;28.97;40.53;99629.80;1658866;86;20170;-72
2022/06/26 10:31:48;;;;;;;;;;;;;;;28.60;40.71;99641.69;1658973;86;21103;-72
2022/06/26 10:34:19;;;;;;;;;;;;;;;28.35;41.00;99642.20;1658780;86;20122;-71
2022/06/26 10:37:03;;;;;;;;;;;;;;;28.09;41.61;99648.76;1658734;86;20152;-71
2022/06/26 10:39:45;;;;;;;;;;;;;;;27.85;42.33;99658.66;1659423;86;20162;-72
2022/06/26 10:45:29;;;;;;;;;;;;;;;27.17;43.70;99654.72;1660501;86;21115;-72
2022/06/26 10:47:58;;;;;;;;;;;;;;;26.79;44.26;99645.61;1659756;86;20177;-71
2022/06/26 10:50:38;;;;;;;;;;;;;;;26.57;44.62;99649.30;1670241;85;20168;-74
2022/06/26 10:53:23;;;;;;;;;;;;;;;26.49;45.27;99654.06;1672259;86;20201;-71
2022/06/26 10:55:54;;;;;;;;;;;;;;;26.43;46.07;99652.93;1672385;86;20149;-71
2022/06/26 10:58:32;;;;;;;;;;;;;;;26.37;46.26;99653.20;1672457;86;21179;-71
2022/06/26 11:01:01;;;;;;;;;;;;;;;26.39;46.85;99653.58;1672706;85;20519;-72
2022/06/26 11:03:28;;;;;;;;;;;;;;;26.43;46.71;99647.30;1672314;86;20117;-71
2022/06/26 11:06:14;;;;;;;;;;;;;;;26.44;46.53;99643.27;1672577;86;20362;-71
2022/06/26 11:08:49;;;;;;;;;;;;;;;26.45;45.56;99645.66;1672321;86;20149;-71
2022/06/26 11:11:25;;;;;;;;;;;;;;;26.46;46.40;99640.83;1672233;86;21167;-70
2022/06/26 11:13:57;;;;;;;;;;;;;;;26.56;47.45;99639.91;1672157;85;20133;-72
2022/06/26 11:16:38;;;;;;;;;;;;;;;26.68;47.11;99642.73;1672404;84;20145;-70
2022/06/26 11:19:07;;;;;;;;;;;;;;;26.76;45.78;99637.20;1675776;85;20119;-71
2022/06/26 11:21:34;;;;;;;;;;;;;;;26.78;45.68;99642.60;1672779;86;20120;-70
2022/06/26 11:24:00;;;;;;;;;;;;;;;26.80;44.21;99640.77;1673030;86;21558;-72
2022/06/26 11:26:27;;;;;;;;;;;;;;;26.76;45.02;99642.22;1673296;86;20419;-71
2022/06/26 11:29:01;;;;;;;;;;;;;;;26.76;44.76;99639.41;1673061;86;20096;-71
2022/06/26 11:31:29;;;;;;;;;;;;;;;26.75;45.00;99642.03;1673085;86;20121;-70
2022/06/26 11:34:11;;;;;;;;;;;;;;;26.74;45.63;99638.23;1673102;86;20117;-72
2022/06/26 11:36:51;;;;;;;;;;;;;;;26.75;44.63;99635.61;1606292;87;21188;-71
2022/06/26 11:39:25;;;;;;;;;;;;;;;26.72;44.30;99635.05;1635818;86;20460;-71
2022/06/26 11:41:53;;;;;;;;;;;;;;;26.65;44.08;99637.34;1627952;87;20447;-71
2022/06/26 11:44:25;;;;;;;;;;;;;;;26.56;44.93;99635.07;1651120;84;20148;-71
2022/06/26 11:46:55;;;;;;;;;;;;;;;26.46;45.98;99636.00;1641697;85;20097;-71
2022/06/26 11:49:33;;;;;;;;;;;;;;;26.42;46.34;99642.89;1657560;85;20144;-70
2022/06/26 11:52:01;;;;;;;;;;;;;;;26.37;46.89;99638.52;1653818;86;20123;-71
2022/06/26 11:54:31;;;;;;;;;;;;;;;26.33;46.43;99636.97;1654931;86;20103;-71
2022/06/26 11:57:09;;;;;;;;;;;;;;;26.26;46.93;99636.41;1652006;86;20099;-71
2022/06/26 11:59:44;;;;;;;;;;;;;;;26.18;47.74;99641.32;1654709;86;20087;-71
2022/06/26 12:02:24;;;;;;;;;;;;;;;26.12;47.96;99640.18;1654141;86;20103;-70
2022/06/26 12:05:01;;;;;;;;;;;;;;;26.12;48.21;99635.96;1651810;86;20098;-71
2022/06/26 12:07:41;;;;;;;;;;;;;;;26.13;48.42;99641.77;1651812;87;20090;-70
2022/06/26 12:10:11;;;;;;;;;;;;;;;26.16;48.61;99639.53;1651681;86;20099;-69
2022/06/26 12:12:51;;;;;;;;;;;;;;;26.28;49.52;99635.38;1676234;85;21031;-70
2022/06/26 12:15:23;;;;;;;;;;;;;;;26.39;48.15;99638.91;1676390;84;21870;-70
2022/06/26 12:17:59;;;;;;;;;;;;;;;26.47;47.68;99639.61;1656038;85;20075;-71
2022/06/26 12:20:34;;;;;;;;;;;;;;;26.47;48.33;99631.17;1659804;85;20159;-70
2022/06/26 12:23:02;;;;;;;;;;;;;;;26.48;47.94;99634.17;1681463;84;20486;-72
2022/06/26 12:25:34;;;;;;;;;;;;;;;26.46;47.24;99642.23;1677494;85;20125;-73
2022/06/26 12:28:25;;;;;;;;;;;;;;;26.45;47.44;99644.26;1678771;85;21188;-74
2022/06/26 12:30:53;;;;;;;;;;;;;;;26.50;48.11;99634.55;1624188;87;20086;-70
2022/06/26 12:33:26;;;;;;;;;;;;;;;26.61;46.66;99637.39;1632388;87;20461;-68
2022/06/26 12:36:02;;;;;;;;;;;;;;;26.71;46.92;99633.45;1632937;87;20138;-68
2022/06/26 12:38:34;;;;;;;;;;;;;;;26.84;46.07;99641.52;1631579;87;20103;-68
2022/06/26 12:41:03;;;;;;;;;;;;;;;26.92;44.47;99629.73;1652255;87;21757;-67
2022/06/26 12:43:39;;;;;;;;;;;;;;;27.12;44.72;99621.42;1651484;86;20111;-69
2022/06/26 12:46:04;;;;;;;;;;;;;;;27.50;43.60;99621.20;1650985;86;20099;-69
2022/06/26 12:48:35;;;;;;;;;;;;;;;27.79;42.13;99608.19;1651911;87;20075;-68
2022/06/26 12:51:08;;;;;;;;;;;;;;;27.98;41.20;99619.33;1651388;87;20099;-68
2022/06/26 12:53:36;;;;;;;;;;;;;;;28.30;42.21;99622.17;1673066;85;20105;-68
2022/06/26 12:56:08;;;;;;;;;;;;;;;28.74;41.99;99609.52;1676898;85;20084;-68
2022/06/26 12:58:41;;;;;;;;;;;;;;;29.37;38.67;99614.91;1672818;85;20120;-70
2022/06/26 13:01:07;;;;;;;;;;;;;;;30.02;38.17;99615.67;1677177;85;20124;-70
2022/06/26 13:03:39;;;;;;;;;;;;;;;30.27;37.43;99624.06;1677922;85;20216;-72
2022/06/26 13:06:12;;;;;;;;;;;;;;;30.15;35.56;99626.39;1658631;85;20123;-73
2022/06/26 13:08:40;;;;;;;;;;;;;;;29.82;38.02;99627.70;1678004;85;20179;-74
2022/06/26 13:11:23;;;;;;;;;;;;;;;29.57;37.82;99627.73;1678287;85;20149;-71
2022/06/26 13:13:53;;;;;;;;;;;;;;;29.35;38.93;99623.84;1680416;84;20427;-69
2022/06/26 13:16:26;;;;;;;;;;;;;;;29.22;38.62;99615.88;1676930;84;20149;-75
2022/06/26 13:18:56;;;;;;;;;;;;;;;29.18;39.08;99608.09;1653939;85;20124;-79
2022/06/26 13:21:25;;;;;;;;;;;;;;;29.27;38.48;99625.25;1678610;85;20164;-68